Time;durP1;ratioP1;P1;durP2;ratioP2;P2;SDS_P1;SDS_P2;PMS_P1;PMS_P2;Temp;Humidity;BMP_temperature;BMP_pressure;BME280_temperature;BME280_humidity;BME280_pressure;Samples;Min_cycle;Max_cycle;Signal;HPM_P1;HPM_P2
2022/01/28 00:00:36;;;;;;;;;41.40;34.60;;;;;8.22;80.64;102749.03;5051921;28;45428;-58
2022/01/28 00:03:07;;;;;;;;;41.60;36.40;;;;;8.03;80.39;102715.22;5048880;27;45746;-57
2022/01/28 00:05:33;;;;;;;;;41.40;36.20;;;;;8.02;80.82;102713.50;5053608;28;45402;-56
2022/01/28 00:07:59;;;;;;;;;41.80;37.80;;;;;8.08;80.95;102715.66;5055714;28;45788;-59
2022/01/28 00:10:25;;;;;;;;;44.50;38.00;;;;;8.25;81.29;102727.72;5055647;28;45776;-57
2022/01/28 00:19:06;;;;;;;;;47.00;38.60;;;;;8.30;80.41;102751.00;5056938;28;45686;-52
2022/01/28 00:40:25;;;;;;;;;44.00;37.20;;;;;8.19;81.17;102746.56;5056908;28;45630;-51
2022/01/28 00:42:51;;;;;;;;;43.40;35.00;;;;;8.31;81.19;102769.19;5057047;28;45398;-54
2022/01/28 00:45:17;;;;;;;;;34.50;28.75;;;;;8.32;81.09;102777.22;5057177;28;45336;-53
2022/01/28 00:47:44;;;;;;;;;40.25;32.25;;;;;8.33;81.43;102778.09;5057298;28;45515;-55
2022/01/28 00:50:09;;;;;;;;;36.60;30.00;;;;;8.19;81.22;102754.78;5056370;28;46031;-52
2022/01/28 00:52:35;;;;;;;;;36.00;32.25;;;;;8.18;81.45;102743.00;5056565;28;45359;-52
2022/01/28 00:55:00;;;;;;;;;47.50;38.25;;;;;8.33;81.30;102776.19;5056677;28;45469;-56
2022/01/28 00:57:26;;;;;;;;;45.25;34.25;;;;;8.33;81.75;102780.81;5055548;28;45500;-54
2022/01/28 00:59:51;;;;;;;;;44.75;37.25;;;;;8.27;82.02;102772.19;5056628;28;46183;-53
2022/01/28 01:02:17;;;;;;;;;38.50;32.50;;;;;8.30;81.50;102776.50;5056355;28;45344;-54
2022/01/28 01:04:42;;;;;;;;;41.50;33.00;;;;;8.29;81.31;102783.00;5056737;28;45402;-57
2022/01/28 01:07:08;;;;;;;;;52.75;38.25;;;;;8.32;81.09;102795.53;5055351;28;45380;-56
2022/01/28 01:09:34;;;;;;;;;52.25;40.50;;;;;8.25;81.86;102790.63;5054767;28;47385;-52
2022/01/28 01:12:00;;;;;;;;;51.80;37.60;;;;;8.33;81.38;102789.03;5055093;28;45486;-56
2022/01/28 01:14:25;;;;;;;;;44.75;34.75;;;;;8.33;81.69;102789.03;5056489;28;45255;-51
2022/01/28 01:19:25;;;;;;;;;42.00;36.20;;;;;8.28;81.12;102782.13;5056195;28;45688;-57
2022/01/28 01:21:56;;;;;;;;;38.40;36.20;;;;;8.30;80.99;102794.78;5049182;28;45610;-58
2022/01/28 01:24:24;;;;;;;;;53.80;36.20;;;;;8.32;81.56;102801.84;5049964;28;45477;-51
2022/01/28 01:26:49;;;;;;;;;42.60;34.00;;;;;8.10;80.74;102764.72;5054254;28;45298;-52
2022/01/28 01:29:18;;;;;;;;;38.00;37.25;;;;;8.27;80.94;102785.88;5056078;28;45378;-52
2022/01/28 01:31:44;;;;;;;;;41.40;36.80;;;;;8.34;80.47;102796.22;5055871;28;45530;-51
2022/01/28 01:34:15;;;;;;;;;35.40;24.80;;;;;8.34;80.36;102798.97;5055899;28;45424;-52
2022/01/28 01:36:41;;;;;;;;;35.80;30.00;;;;;8.33;80.45;102794.50;5038837;28;45378;-53
2022/01/28 01:39:10;;;;;;;;;41.40;36.00;;;;;8.36;81.08;102807.88;5054582;28;47331;-54
2022/01/28 01:41:42;;;;;;;;;50.80;36.80;;;;;8.19;80.39;102787.59;5055636;28;45388;-52
2022/01/28 01:52:00;;;;;;;;;39.60;35.40;;;;;8.34;80.92;102812.66;5032388;28;45526;-50
2022/01/28 01:52:38;;;;;;;;;45.40;35.60;;;;;8.33;80.46;102821.88;5055337;28;45266;-53
2022/01/28 01:55:04;;;;;;;;;48.00;34.00;;;;;8.27;80.39;102821.44;5088640;27;45274;-56
2022/01/28 01:57:30;;;;;;;;;46.50;38.25;;;;;8.11;80.56;102802.03;5055910;28;45350;-57
2022/01/28 01:59:55;;;;;;;;;51.40;40.20;;;;;8.30;80.52;102835.81;5055461;28;46907;-55
2022/01/28 02:02:21;;;;;;;;;44.75;38.00;;;;;8.28;80.11;102836.84;5054774;28;45299;-51
2022/01/28 02:04:46;;;;;;;;;42.00;37.00;;;;;8.27;79.98;102835.13;5055682;28;45317;-54
2022/01/28 02:07:13;;;;;;;;;45.25;34.50;;;;;8.25;80.22;102836.28;5055507;28;45500;-56
2022/01/28 02:09:40;;;;;;;;;51.40;39.20;;;;;8.24;80.76;102840.03;5054049;28;45940;-55
2022/01/28 02:12:06;;;;;;;;;47.80;40.40;;;;;8.28;79.73;102838.72;5055135;28;45421;-57
2022/01/28 02:14:32;;;;;;;;;45.20;36.80;;;;;8.27;80.26;102846.06;5037226;28;45326;-56
2022/01/28 02:16:58;;;;;;;;;49.00;39.50;;;;;8.26;80.12;102843.47;5054362;28;45625;-53
2022/01/28 02:19:23;;;;;;;;;49.75;40.25;;;;;8.28;80.65;102844.19;5055330;28;45423;-54
2022/01/28 02:21:51;;;;;;;;;40.25;35.25;;;;;8.21;80.30;102841.16;5043817;28;47188;-54
2022/01/28 02:24:22;;;;;;;;;45.60;35.40;;;;;8.12;80.30;102833.84;5036044;28;45420;-54
2022/01/28 02:26:48;;;;;;;;;47.20;39.80;;;;;8.24;79.99;102851.84;5055607;28;45359;-57
2022/01/28 02:29:25;;;;;;;;;40.75;36.50;;;;;8.19;80.05;102854.13;5054799;28;45608;-55
2022/01/28 02:31:51;;;;;;;;;44.60;35.60;;;;;7.90;79.88;102813.09;5054952;28;45379;-54
2022/01/28 02:34:16;;;;;;;;;52.50;38.00;;;;;8.01;80.15;102823.91;5054975;28;45389;-57
2022/01/28 02:36:42;;;;;;;;;57.50;41.00;;;;;8.10;79.63;102850.38;5055253;28;45351;-56
2022/01/28 02:39:08;;;;;;;;;45.50;38.50;;;;;7.49;79.71;102750.34;5053565;28;45476;-54
2022/01/28 02:41:38;;;;;;;;;38.50;31.50;;;;;7.93;79.18;102830.09;5054769;28;45365;-55
2022/01/28 02:46:54;;;;;;;;;51.00;40.20;;;;;8.14;79.59;102872.84;5055283;28;45310;-52
2022/01/28 02:49:20;;;;;;;;;45.00;37.00;;;;;7.94;79.63;102830.94;5053563;28;45887;-56
2022/01/28 02:51:45;;;;;;;;;44.00;35.75;;;;;8.16;79.69;102870.81;5054905;28;45443;-53
2022/01/28 02:54:16;;;;;;;;;41.50;37.75;;;;;8.08;79.45;102857.00;5054304;28;45399;-56
2022/01/28 02:57:00;;;;;;;;;49.20;33.60;;;;;8.13;79.74;102860.19;5055281;28;45344;-52
2022/01/28 02:59:26;;;;;;;;;41.60;34.40;;;;;8.13;79.11;102855.56;5054426;28;45831;-50
2022/01/28 03:01:51;;;;;;;;;50.75;39.00;;;;;8.15;79.15;102869.09;5054908;28;45230;-52
2022/01/28 03:07:01;;;;;;;;;41.20;37.40;;;;;8.08;79.66;102857.88;5055291;28;45376;-52
2022/01/28 03:09:36;;;;;;;;;43.75;34.00;;;;;8.07;79.42;102858.03;5053241;28;45473;-55
2022/01/28 03:12:15;;;;;;;;;49.40;38.00;;;;;8.05;79.35;102851.84;5054887;28;45325;-54
2022/01/28 03:15:03;;;;;;;;;37.20;31.40;;;;;8.07;79.45;102849.81;5054759;28;45324;-53
2022/01/28 03:20:32;;;;;;;;;46.60;38.00;;;;;7.95;78.32;102844.47;5054750;28;45370;-56
2022/01/28 03:22:51;;;;;;;;;44.80;34.40;;;;;7.95;79.00;102841.75;5054468;28;45171;-54
2022/01/28 03:25:17;;;;;;;;;58.50;41.75;;;;;7.97;79.24;102839.75;5054664;28;45289;-55
2022/01/28 03:27:58;;;;;;;;;37.75;33.25;;;;;7.73;79.48;102802.72;5054942;28;45257;-54
2022/01/28 03:30:23;;;;;;;;;40.80;35.80;;;;;7.97;79.18;102839.75;5054237;28;45446;-52
2022/01/28 03:32:49;;;;;;;;;46.00;39.75;;;;;7.81;79.19;102818.44;5054526;28;45344;-54
2022/01/28 03:35:16;;;;;;;;;47.75;40.25;;;;;7.85;79.29;102829.94;5053213;28;45362;-52
2022/01/28 03:37:42;;;;;;;;;42.80;35.80;;;;;8.00;78.93;102855.84;5054334;28;45357;-52
2022/01/28 03:40:08;;;;;;;;;33.50;30.25;;;;;8.01;78.41;102845.78;5054340;28;45276;-50
2022/01/28 03:42:35;;;;;;;;;40.00;34.40;;;;;7.85;78.51;102810.81;5052818;28;45514;-56
2022/01/28 03:45:00;;;;;;;;;47.40;35.80;;;;;8.02;78.26;102844.78;5054130;28;45376;-54
2022/01/28 03:47:26;;;;;;;;;51.25;40.25;;;;;7.99;78.64;102848.66;5054139;28;45438;-56
2022/01/28 03:49:51;;;;;;;;;42.75;31.00;;;;;7.98;78.71;102846.94;5052398;28;46381;-55
2022/01/28 03:52:17;;;;;;;;;31.50;25.50;;;;;8.01;78.52;102854.00;5054166;28;45409;-55
2022/01/28 03:54:42;;;;;;;;;40.50;33.50;;;;;7.86;78.32;102831.66;5052649;28;45466;-52
2022/01/28 03:57:08;;;;;;;;;45.50;37.50;;;;;7.98;78.57;102863.34;5054387;28;45626;-50
2022/01/28 03:59:34;;;;;;;;;43.00;35.75;;;;;7.97;77.74;102867.09;5052266;28;47159;-57
2022/01/28 04:02:00;;;;;;;;;47.25;38.25;;;;;7.98;78.06;102874.28;5054003;28;45277;-53
2022/01/28 04:12:29;;;;;;;;;38.60;30.80;;;;;7.94;78.39;102882.88;5057030;28;45444;-49
2022/01/28 04:17:26;;;;;;;;;48.20;38.20;;;;;7.79;78.54;102858.69;5057610;28;45357;-51
2022/01/28 04:19:52;;;;;;;;;42.00;34.00;;;;;7.99;78.47;102889.69;5056641;28;45770;-55
2022/01/28 04:22:18;;;;;;;;;51.80;39.40;;;;;7.98;78.76;102878.88;5030135;28;45431;-56
2022/01/28 04:24:44;;;;;;;;;48.40;33.20;;;;;7.82;78.46;102847.50;5025414;28;45536;-53
2022/01/28 04:27:09;;;;;;;;;43.00;29.00;;;;;7.81;78.34;102851.25;5057193;28;45373;-52
2022/01/28 04:29:35;;;;;;;;;42.75;33.50;;;;;8.02;78.01;102879.47;5057259;28;46272;-53
2022/01/28 04:32:01;;;;;;;;;43.50;34.50;;;;;8.04;78.69;102881.03;5057007;28;45321;-55
2022/01/28 04:34:26;;;;;;;;;43.40;35.40;;;;;8.03;78.73;102890.25;5056755;28;45670;-55
2022/01/28 04:58:00;;;;;;;;;48.80;34.60;;;;;8.03;78.53;102903.06;5055759;28;45391;-57
2022/01/28 05:07:09;;;;;;;;;41.40;34.80;;;;;7.97;78.93;102899.03;5018211;28;45465;-56
2022/01/28 05:27:15;;;;;;;;;39.40;34.60;;;;;7.38;78.64;102844.22;5051405;28;47711;-51
2022/01/28 05:29:41;;;;;;;;;34.40;29.00;;;;;7.91;78.48;102929.69;5055512;28;45324;-50
2022/01/28 05:32:08;;;;;;;;;32.40;26.60;;;;;7.88;78.74;102933.56;5035472;28;45363;-51
2022/01/28 05:34:33;;;;;;;;;38.60;29.00;;;;;7.83;79.12;102925.78;5056227;28;45384;-53
2022/01/28 05:36:59;;;;;;;;;44.50;35.50;;;;;7.73;78.82;102916.66;5056510;28;45382;-52
2022/01/28 05:39:24;;;;;;;;;44.00;37.25;;;;;7.84;78.82;102940.28;5038394;28;45414;-56
2022/01/28 05:41:50;;;;;;;;;43.50;36.50;;;;;7.85;78.72;102945.63;5055857;28;46447;-56
2022/01/28 05:44:15;;;;;;;;;36.75;29.75;;;;;7.85;78.21;102942.91;5056346;28;45378;-53
2022/01/28 05:46:41;;;;;;;;;36.50;30.00;;;;;7.69;78.94;102918.81;5056250;28;45484;-53
2022/01/28 05:49:07;;;;;;;;;43.00;33.25;;;;;7.82;78.50;102942.31;5056312;28;45463;-54
2022/01/28 05:51:32;;;;;;;;;32.00;28.50;;;;;7.84;78.43;102957.56;5055312;28;46450;-55
2022/01/28 05:53:58;;;;;;;;;38.50;33.00;;;;;7.75;78.01;102946.59;5055953;28;45497;-56
2022/01/28 05:56:25;;;;;;;;;34.75;31.00;;;;;7.76;78.13;102957.41;5055400;28;45383;-54
2022/01/28 05:58:51;;;;;;;;;33.40;30.40;;;;;7.54;78.00;102932.03;5056208;28;45315;-55
2022/01/28 06:01:16;;;;;;;;;45.50;35.25;;;;;7.07;78.42;102858.78;5053995;28;45545;-55
2022/01/28 06:03:44;;;;;;;;;35.75;31.00;;;;;7.77;77.81;102978.28;5055725;28;45310;-52
2022/01/28 06:06:18;;;;;;;;;34.40;29.20;;;;;7.80;77.83;102990.81;5054314;28;45451;-56
2022/01/28 06:08:43;;;;;;;;;44.00;35.00;;;;;7.82;77.90;102983.31;5055385;28;45336;-55
2022/01/28 06:11:09;;;;;;;;;37.75;31.75;;;;;7.84;77.28;102990.38;5055385;28;45807;-54
2022/01/28 06:13:34;;;;;;;;;29.75;23.25;;;;;7.81;77.43;102992.53;5055257;28;45358;-55
2022/01/28 06:16:00;;;;;;;;;46.25;34.75;;;;;7.79;77.58;102989.09;5054258;28;45486;-57
2022/01/28 06:18:25;;;;;;;;;41.00;34.00;;;;;7.77;77.48;102982.88;5055770;28;45434;-54
2022/01/28 06:20:51;;;;;;;;;43.25;35.75;;;;;7.79;77.29;102979.00;5055186;28;45722;-55
2022/01/28 06:23:17;;;;;;;;;44.60;35.80;;;;;7.84;77.47;102981.31;5054271;28;45921;-54
2022/01/28 06:25:44;;;;;;;;;44.25;37.75;;;;;7.87;77.15;102981.03;5053480;28;45427;-52
2022/01/28 06:28:09;;;;;;;;;44.20;35.00;;;;;7.86;77.29;102982.06;5055544;28;45633;-56
2022/01/28 06:30:35;;;;;;;;;34.25;27.75;;;;;7.86;77.28;102982.06;5085787;27;47326;-60
2022/01/28 06:33:01;;;;;;;;;47.00;33.25;;;;;7.89;77.05;102983.66;5034105;28;45452;-56
2022/01/28 06:35:26;;;;;;;;;33.50;28.25;;;;;7.90;77.33;102982.63;5054989;28;45389;-53
2022/01/28 06:37:52;;;;;;;;;46.50;31.75;;;;;7.85;76.77;102978.44;5055227;28;45380;-55
2022/01/28 06:40:17;;;;;;;;;37.25;32.25;;;;;7.76;76.41;102982.03;5053938;28;46445;-52
2022/01/28 06:42:43;;;;;;;;;48.00;36.00;;;;;7.59;76.91;102953.47;5054448;28;45452;-56
2022/01/28 06:45:09;;;;;;;;;37.75;31.00;;;;;7.75;76.99;102965.75;5053957;28;45638;-53
2022/01/28 06:47:35;;;;;;;;;43.25;30.00;;;;;7.82;76.63;102977.84;5054548;28;45582;-55
2022/01/28 06:50:02;;;;;;;;;34.00;28.20;;;;;7.84;76.92;102995.84;5054398;28;45464;-54
2022/01/28 06:52:28;;;;;;;;;37.80;33.40;;;;;7.89;76.74;102998.16;5054873;28;45350;-56
2022/01/28 06:54:53;;;;;;;;;32.50;28.75;;;;;7.90;76.44;102997.16;5054798;28;45416;-55
2022/01/28 06:57:19;;;;;;;;;43.25;37.50;;;;;7.66;77.00;102957.38;5053705;28;45408;-54
2022/01/28 06:59:45;;;;;;;;;40.75;32.75;;;;;7.89;76.71;103000.06;5053330;28;47457;-59
2022/01/28 07:02:10;;;;;;;;;36.00;26.75;;;;;7.91;76.40;102998.91;5054471;28;45605;-58
2022/01/28 07:04:36;;;;;;;;;37.00;26.25;;;;;7.92;76.39;103002.50;5059042;28;45537;-52
2022/01/28 07:07:01;;;;;;;;;38.00;31.75;;;;;7.90;76.47;103004.50;5069177;28;45807;-54
2022/01/28 07:09:27;;;;;;;;;37.50;36.25;;;;;7.90;76.25;103008.09;5075140;28;45511;-56
2022/01/28 07:11:53;;;;;;;;;45.00;37.25;;;;;7.70;76.40;102975.22;5073644;28;45410;-58
2022/01/28 07:14:18;;;;;;;;;40.25;34.25;;;;;7.89;76.27;102997.31;5075475;27;45356;-54
2022/01/28 07:16:44;;;;;;;;;46.75;37.00;;;;;7.90;76.39;103002.63;5075284;27;45329;-56
2022/01/28 07:19:09;;;;;;;;;46.75;38.75;;;;;7.90;76.76;103008.09;5074871;27;46433;-56
2022/01/28 07:21:35;;;;;;;;;44.75;34.25;;;;;7.91;76.56;103011.72;5074982;27;45459;-54
2022/01/28 07:24:01;;;;;;;;;44.00;38.50;;;;;7.89;76.46;103011.00;5073508;28;45403;-58
2022/01/28 07:26:26;;;;;;;;;42.00;37.75;;;;;7.83;76.67;103005.06;5073674;28;45536;-58
2022/01/28 07:28:53;;;;;;;;;55.00;42.00;;;;;7.90;76.56;103016.31;5074584;27;45538;-53
2022/01/28 07:31:19;;;;;;;;;57.00;41.80;;;;;7.70;76.16;102994.34;5074525;27;45432;-54
2022/01/28 07:33:45;;;;;;;;;52.80;38.00;;;;;7.48;75.73;102951.69;5072781;28;45368;-54
2022/01/28 07:36:10;;;;;;;;;51.00;38.20;;;;;7.90;76.21;103029.13;5031831;27;45521;-55
2022/01/28 07:38:36;;;;;;;;;51.25;39.25;;;;;7.91;76.29;103028.13;5052616;28;45403;-54
2022/01/28 07:41:01;;;;;;;;;46.75;41.50;;;;;7.90;76.03;103034.59;5055447;28;45249;-59
2022/01/28 07:43:27;;;;;;;;;51.50;41.75;;;;;7.91;76.55;103047.25;5056551;28;45398;-57
2022/01/28 07:45:53;;;;;;;;;42.75;38.25;;;;;7.89;75.54;103044.66;5057147;28;45587;-57
2022/01/28 07:48:18;;;;;;;;;49.50;38.50;;;;;7.93;75.16;103043.38;5057342;28;45973;-54
2022/01/28 07:50:44;;;;;;;;;43.75;34.50;;;;;7.88;75.00;103032.00;5057671;28;45428;-56
2022/01/28 07:53:14;;;;;;;;;37.50;32.00;;;;;7.95;74.03;103060.50;5058018;28;45408;-57
2022/01/28 07:55:39;;;;;;;;;43.20;35.00;;;;;7.95;73.75;103049.56;5058290;28;45501;-53
2022/01/28 07:58:05;;;;;;;;;43.25;30.25;;;;;7.96;73.65;103064.97;5055850;28;46383;-55
2022/01/28 08:00:30;;;;;;;;;49.25;35.50;;;;;7.99;73.93;103064.72;5057488;28;45329;-56
2022/01/28 08:02:56;;;;;;;;;38.25;30.50;;;;;8.01;72.50;103070.06;5057965;28;45281;-59
2022/01/28 08:05:22;;;;;;;;;40.00;34.50;;;;;8.02;73.59;103076.38;5056531;28;45386;-59
2022/01/28 08:07:48;;;;;;;;;50.25;37.25;;;;;7.98;73.50;103073.94;5057534;28;46533;-57
2022/01/28 08:10:16;;;;;;;;;39.60;35.40;;;;;7.98;73.59;103081.25;5057574;28;45494;-57
2022/01/28 08:12:52;;;;;;;;;40.80;32.20;;;;;7.96;73.04;103081.38;5057633;28;45506;-58
2022/01/28 08:15:18;;;;;;;;;41.20;34.00;;;;;7.83;73.74;103057.00;5057906;28;45872;-59
2022/01/28 08:17:44;;;;;;;;;55.00;40.75;;;;;8.01;74.14;103075.53;5057199;28;45397;-59
2022/01/28 08:20:09;;;;;;;;;51.20;38.40;;;;;8.04;74.04;103077.09;5023839;28;46250;-58
2022/01/28 08:22:54;;;;;;;;;48.75;38.25;;;;;8.08;73.60;103073.09;5045041;28;45756;-53
2022/01/28 08:25:21;;;;;;;;;38.80;33.60;;;;;8.08;73.54;103084.03;5051987;28;45332;-58
2022/01/28 08:27:46;;;;;;;;;42.20;33.20;;;;;8.07;73.89;103076.84;5051291;28;45744;-61
2022/01/28 08:30:13;;;;;;;;;43.75;32.25;;;;;8.01;73.44;103078.25;5053557;28;45894;-56
2022/01/28 08:32:39;;;;;;;;;43.80;27.40;;;;;7.96;73.66;103072.31;5044722;28;45441;-57
2022/01/28 08:35:05;;;;;;;;;30.50;28.00;;;;;8.00;73.29;103087.44;5050410;28;45572;-57
2022/01/28 08:37:30;;;;;;;;;47.25;35.50;;;;;7.94;74.22;103094.34;5019359;28;46390;-61
2022/01/28 08:39:56;;;;;;;;;46.75;38.00;;;;;8.00;73.77;103101.13;5032490;28;45989;-56
2022/01/28 08:42:21;;;;;;;;;45.00;36.50;;;;;8.00;73.71;103090.19;5051946;28;45558;-59
2022/01/28 08:44:47;;;;;;;;;42.00;32.50;;;;;7.85;73.73;103073.28;5052558;28;45450;-60
2022/01/28 08:47:12;;;;;;;;;41.25;34.75;;;;;8.09;73.60;103114.00;5051353;28;46106;-55
2022/01/28 08:49:38;;;;;;;;;39.50;30.25;;;;;8.09;73.12;103118.56;5050503;28;45944;-58
2022/01/28 08:52:04;;;;;;;;;37.50;33.75;;;;;8.02;73.43;103115.53;5050337;28;45777;-55
2022/01/28 08:54:29;;;;;;;;;37.50;31.75;;;;;8.09;72.76;103132.25;5049860;28;45449;-57
2022/01/28 08:56:55;;;;;;;;;36.75;30.50;;;;;8.03;72.35;103124.59;5050134;28;47278;-60
2022/01/28 08:59:20;;;;;;;;;36.00;29.25;;;;;8.01;72.17;103135.69;5050714;28;45424;-59
2022/01/28 09:01:46;;;;;;;;;36.75;30.25;;;;;8.03;72.61;103143.75;5051051;28;45499;-54
2022/01/28 09:04:11;;;;;;;;;37.00;30.00;;;;;8.08;72.82;103146.94;5051145;28;45428;-49
2022/01/28 09:06:37;;;;;;;;;41.25;32.25;;;;;8.07;72.98;103150.69;5051246;28;46507;-53
2022/01/28 09:09:03;;;;;;;;;37.25;31.75;;;;;8.12;72.66;103162.09;5051702;28;45405;-59
2022/01/28 09:11:33;;;;;;;;;37.80;31.40;;;;;8.16;72.76;103157.22;5051109;28;45464;-54
2022/01/28 09:13:58;;;;;;;;;35.80;31.00;;;;;8.17;72.34;103151.56;5052598;28;45564;-55
2022/01/28 09:16:24;;;;;;;;;35.00;24.25;;;;;8.15;70.81;103150.84;5049856;28;46476;-54
2022/01/28 09:18:50;;;;;;;;;33.25;28.75;;;;;8.05;71.84;103123.47;5031147;28;45480;-57
2022/01/28 09:21:15;;;;;;;;;40.50;29.50;;;;;7.98;71.94;103109.47;5051359;28;45501;-55
2022/01/28 09:23:41;;;;;;;;;40.75;31.00;;;;;8.17;71.52;103140.63;5051114;28;45370;-49
2022/01/28 09:26:08;;;;;;;;;46.25;33.75;;;;;8.15;71.96;103145.38;5052216;28;46162;-57
2022/01/28 09:28:33;;;;;;;;;35.20;29.00;;;;;8.23;72.15;103152.91;5051177;28;45515;-51
2022/01/28 09:30:59;;;;;;;;;38.00;30.75;;;;;8.15;71.22;103145.38;5052276;28;45294;-54
2022/01/28 09:33:24;;;;;;;;;37.75;30.25;;;;;8.14;71.94;103150.00;5034302;28;45656;-53
2022/01/28 09:35:50;;;;;;;;;36.50;24.25;;;;;8.23;72.21;103161.13;5051692;28;45691;-59
2022/01/28 09:38:16;;;;;;;;;41.50;30.50;;;;;8.24;72.06;103168.31;5023690;28;45963;-58
2022/01/28 09:40:42;;;;;;;;;45.20;36.60;;;;;8.26;71.17;103167.19;5050597;28;45512;-54
2022/01/28 09:43:08;;;;;;;;;39.75;31.75;;;;;8.25;71.76;103156.38;5050613;28;45484;-54
2022/01/28 09:45:34;;;;;;;;;31.40;23.80;;;;;7.95;71.52;103109.72;5050591;28;46771;-55
2022/01/28 09:48:00;;;;;;;;;34.25;29.00;;;;;8.32;71.62;103164.91;5050108;28;45363;-58
2022/01/28 09:50:28;;;;;;;;;30.20;25.60;;;;;8.34;71.45;103157.44;5052055;28;45424;-58
2022/01/28 09:52:55;;;;;;;;;32.40;29.40;;;;;8.32;71.62;103151.22;5049827;28;45817;-57
2022/01/28 09:55:21;;;;;;;;;36.20;28.80;;;;;8.36;70.84;103161.75;5051663;28;45921;-52
2022/01/28 09:57:51;;;;;;;;;37.80;31.80;;;;;8.25;70.23;103165.47;5051525;28;45507;-58
2022/01/28 10:00:17;;;;;;;;;33.00;28.60;;;;;8.19;71.47;103152.34;5034359;28;45390;-54
2022/01/28 10:02:59;;;;;;;;;31.20;27.80;;;;;8.12;71.32;103156.63;5050421;28;45430;-56
2022/01/28 10:05:30;;;;;;;;;34.60;27.00;;;;;8.11;71.24;103158.47;5049827;28;45592;-57
2022/01/28 10:08:03;;;;;;;;;30.00;25.00;;;;;8.18;71.15;103163.41;5051249;28;45475;-52
2022/01/28 10:10:59;;;;;;;;;37.00;32.00;;;;;8.19;71.80;103166.00;5051517;28;45526;-57
2022/01/28 10:13:34;;;;;;;;;25.00;19.20;;;;;8.23;71.16;103169.34;5051485;28;46011;-56
2022/01/28 10:16:08;;;;;;;;;29.80;22.20;;;;;8.18;71.43;103163.41;5036256;28;46094;-57
2022/01/28 10:18:50;;;;;;;;;39.60;27.60;;;;;7.84;70.50;103088.81;5028769;28;45430;-57
2022/01/28 10:21:32;;;;;;;;;30.20;22.60;;;;;8.45;70.17;103167.41;5051135;28;45536;-61
2022/01/28 10:24:03;;;;;;;;;30.40;24.20;;;;;8.39;70.01;103175.16;5051212;28;45550;-55
2022/01/28 10:26:35;;;;;;;;;24.60;20.40;;;;;8.38;70.23;103165.22;5050948;28;46682;-59
2022/01/28 10:29:02;;;;;;;;;29.20;27.00;;;;;8.32;69.76;103167.66;5049504;28;45756;-58
2022/01/28 10:31:57;;;;;;;;;35.60;26.80;;;;;8.38;70.84;103169.84;5049621;28;45398;-55
2022/01/28 10:34:24;;;;;;;;;24.80;19.60;;;;;8.17;70.78;103140.63;5035288;28;45330;-56
2022/01/28 10:36:50;;;;;;;;;36.80;31.00;;;;;8.41;70.41;103170.44;5049529;28;47999;-56
2022/01/28 10:39:20;;;;;;;;;26.80;24.20;;;;;8.58;70.68;103184.47;5050466;28;45446;-54
2022/01/28 10:41:58;;;;;;;;;30.60;21.40;;;;;8.35;69.61;103150.94;5052431;28;45307;-59
2022/01/28 10:44:25;;;;;;;;;46.20;28.60;;;;;8.45;69.63;103159.19;5016315;28;46009;-55
2022/01/28 10:46:56;;;;;;;;;23.60;21.80;;;;;8.60;69.07;103182.47;5050412;28;45833;-57
2022/01/28 10:49:33;;;;;;;;;32.80;23.20;;;;;8.72;68.90;103194.19;5050839;28;45410;-53
2022/01/28 10:52:07;;;;;;;;;30.60;24.40;;;;;8.61;69.10;103169.66;5049556;28;45387;-58
2022/01/28 10:54:33;;;;;;;;;30.80;24.60;;;;;8.80;69.16;103202.56;5051477;28;45745;-57
2022/01/28 10:57:00;;;;;;;;;23.00;20.25;;;;;8.82;68.63;103199.69;5049628;28;45766;-58
2022/01/28 10:59:30;;;;;;;;;28.80;21.40;;;;;8.86;67.90;103200.28;5050606;28;45929;-57
2022/01/28 11:01:56;;;;;;;;;30.80;19.00;;;;;8.82;68.66;103202.44;5050788;28;45404;-53
2022/01/28 11:04:22;;;;;;;;;15.00;14.75;;;;;8.38;67.82;103126.91;5032688;28;45598;-55
2022/01/28 11:06:49;;;;;;;;;26.00;23.00;;;;;8.81;68.53;103197.97;5050939;28;45946;-56
2022/01/28 11:09:16;;;;;;;;;26.80;22.00;;;;;8.79;68.79;103202.69;5027986;28;45535;-53
2022/01/28 11:11:42;;;;;;;;;28.40;21.60;;;;;8.75;68.44;103202.13;5029049;28;45446;-50
2022/01/28 11:14:08;;;;;;;;;30.75;24.00;;;;;8.74;68.56;103202.25;5049064;28;45561;-55
2022/01/28 11:16:34;;;;;;;;;25.50;22.00;;;;;8.78;68.70;103207.34;5051863;28;46283;-58
2022/01/28 11:18:59;;;;;;;;;26.25;21.25;;;;;8.80;68.91;103196.22;5053700;28;45419;-58
2022/01/28 11:21:47;;;;;;;;;30.25;22.75;;;;;8.80;69.18;103188.88;5036329;28;45326;-60
2022/01/28 11:24:45;;;;;;;;;35.00;22.40;;;;;8.78;68.42;103188.16;5053862;28;45417;-58
2022/01/28 11:27:12;;;;;;;;;30.60;23.00;;;;;8.68;69.12;103170.81;5044951;28;46077;-58
2022/01/28 11:29:37;;;;;;;;;31.40;24.80;;;;;8.71;68.99;103181.50;5053236;28;45433;-59
2022/01/28 11:32:14;;;;;;;;;27.50;25.75;;;;;8.71;68.98;103181.50;5019543;28;45607;-59
2022/01/28 11:34:53;;;;;;;;;37.20;28.00;;;;;8.75;68.67;103182.09;5030412;28;45640;-55
2022/01/28 11:37:32;;;;;;;;;36.60;28.60;;;;;8.64;69.58;103161.19;5038357;28;46321;-53
2022/01/28 11:40:08;;;;;;;;;32.20;26.60;;;;;8.62;68.53;103157.69;5050212;28;45433;-61
2022/01/28 11:42:34;;;;;;;;;31.00;23.00;;;;;8.81;69.06;103173.31;5050746;28;46009;-55
2022/01/28 11:45:00;;;;;;;;;22.25;21.00;;;;;8.78;69.59;103159.91;5018196;28;45585;-54
2022/01/28 11:47:26;;;;;;;;;22.60;20.60;;;;;8.80;68.34;103166.09;5046654;28;45671;-60
2022/01/28 11:50:11;;;;;;;;;32.60;25.00;;;;;8.76;69.12;103148.22;5048006;28;45411;-57
2022/01/28 11:52:50;;;;;;;;;21.40;19.80;;;;;8.86;69.31;103151.84;5082630;27;45773;-56
2022/01/28 11:55:23;;;;;;;;;36.40;27.20;;;;;8.93;68.97;103150.25;5050125;28;45820;-57
2022/01/28 11:58:10;;;;;;;;;26.60;22.80;;;;;8.89;67.72;103128.78;5049251;28;45445;-58
2022/01/28 12:00:41;;;;;;;;;28.20;21.20;;;;;8.97;67.91;103141.78;5049444;28;45447;-61
2022/01/28 12:03:20;;;;;;;;;27.00;22.80;;;;;9.03;67.81;103146.69;5030684;28;45454;-57
2022/01/28 12:05:46;;;;;;;;;26.80;23.40;;;;;8.94;67.77;103118.28;5048942;28;45835;-61
2022/01/28 12:08:12;;;;;;;;;26.00;18.50;;;;;9.08;67.34;103127.94;5049832;28;45992;-56
2022/01/28 12:10:42;;;;;;;;;25.20;21.00;;;;;9.11;66.92;103132.28;5049607;28;45471;-62
2022/01/28 12:13:12;;;;;;;;;28.20;22.20;;;;;9.11;66.65;103126.81;5032475;28;45437;-59
2022/01/28 12:16:13;;;;;;;;;28.00;22.00;;;;;9.13;67.11;103113.81;5027033;28;45418;-58
2022/01/28 12:18:48;;;;;;;;;34.60;27.20;;;;;8.99;67.43;103074.00;5030068;28;46859;-55
2022/01/28 12:21:27;;;;;;;;;30.00;23.80;;;;;9.16;66.67;103119.00;5045045;28;46006;-59
2022/01/28 12:23:55;;;;;;;;;20.00;20.00;;;;;9.14;66.42;103121.91;5029723;28;45464;-58
2022/01/28 12:26:21;;;;;;;;;23.80;21.80;;;;;9.11;67.75;103104.88;5040487;28;45507;-56
2022/01/28 12:28:54;;;;;;;;;27.20;23.00;;;;;9.12;66.91;103107.47;5084296;27;45925;-63
2022/01/28 12:31:31;;;;;;;;;25.20;23.60;;;;;9.15;67.23;103101.72;5043278;28;45496;-59
2022/01/28 12:34:01;;;;;;;;;22.80;21.40;;;;;9.11;66.41;103091.19;5051798;28;45770;-61
2022/01/28 12:36:38;;;;;;;;;27.40;21.40;;;;;8.82;67.31;103047.19;5053357;28;45496;-59
2022/01/28 12:41:49;;;;;;;;;32.00;25.60;;;;;9.03;67.70;103076.31;5052999;28;45805;-57
2022/01/28 12:44:15;;;;;;;;;26.60;25.60;;;;;9.02;67.53;103088.28;5021283;28;45825;-58
2022/01/28 12:46:40;;;;;;;;;22.50;18.50;;;;;9.02;67.23;103095.66;5052769;28;45674;-60
2022/01/28 12:49:08;;;;;;;;;33.25;22.50;;;;;8.99;67.16;103084.97;5067647;28;45666;-59
2022/01/28 12:51:36;;;;;;;;;32.60;29.60;;;;;9.01;67.63;103085.72;5049581;28;45430;-58
2022/01/28 12:54:02;;;;;;;;;30.40;25.20;;;;;9.00;66.73;103093.03;5051085;28;45712;-59
2022/01/28 12:56:32;;;;;;;;;31.75;26.25;;;;;8.74;67.24;103054.38;5052818;28;45683;-55
2022/01/28 12:58:58;;;;;;;;;25.20;20.80;;;;;9.05;66.57;103090.75;5052750;28;45616;-56
2022/01/28 13:01:24;;;;;;;;;29.50;24.25;;;;;8.98;66.96;103096.94;5052231;28;45863;-58